Time,TemperatureF,DewpointF,PressureIn,WindDirection,WindDirectionDegrees,WindSpeedMPH,WindSpeedGustMPH,Humidity,HourlyPrecipIn,Conditions,Clouds,dailyrainin,SoftwareType,DateUTC
2013-11-07 00:01:00,50.8,49.7,30.07,South,186,0.0,0.0,96,0.00,,SKC,0.06,VWS V14.01,2013-11-07 05:01:00,
2013-11-07 00:06:00,50.8,49.7,30.07,South,186,0.0,0.0,96,0.00,,SKC,0.00,VWS V14.01,2013-11-07 05:06:00,
2013-11-07 00:11:00,50.8,49.7,30.07,South,186,0.0,0.0,96,0.00,,SKC,0.00,VWS V14.01,2013-11-07 05:11:00,
2013-11-07 00:16:00,50.8,49.7,30.07,South,186,0.0,0.0,96,0.00,,SKC,0.00,VWS V14.01,2013-11-07 05:16:00,
2013-11-07 00:21:00,50.8,49.7,30.06,South,186,0.0,0.0,96,0.00,,SKC,0.00,VWS V14.01,2013-11-07 05:21:00,
2013-11-07 00:26:00,50.8,49.7,30.06,South,186,0.0,0.0,96,0.00,,SKC,0.00,VWS V14.01,2013-11-07 05:26:00,
2013-11-07 00:31:00,50.8,49.7,30.06,South,186,0.0,0.0,96,0.00,,SKC,0.00,VWS V14.01,2013-11-07 05:31:00,
2013-11-07 00:36:00,50.8,49.7,30.05,South,186,0.0,0.0,96,0.00,,SKC,0.00,VWS V14.01,2013-11-07 05:36:00,
2013-11-07 00:41:00,51.0,49.9,30.05,South,186,1.0,2.0,96,0.00,,SKC,0.00,VWS V14.01,2013-11-07 05:41:00,
2013-11-07 00:46:00,51.0,49.9,30.05,South,186,0.0,1.0,96,0.00,,SKC,0.00,VWS V14.01,2013-11-07 05:46:00,
2013-11-07 00:51:00,50.7,49.6,30.04,South,186,0.0,0.0,96,0.00,,SKC,0.00,VWS V14.01,2013-11-07 05:51:00,
2013-11-07 00:56:00,50.4,49.3,30.04,South,186,0.0,0.0,96,0.00,,SKC,0.00,VWS V14.01,2013-11-07 05:56:00,
2013-11-07 01:01:00,50.2,49.1,30.04,South,186,0.0,0.0,96,0.00,,SKC,0.00,VWS V14.01,2013-11-07 06:01:00,
2013-11-07 01:06:00,50.1,49.0,30.05,South,186,0.0,0.0,96,0.00,,SKC,0.00,VWS V14.01,2013-11-07 06:06:00,
2013-11-07 01:11:00,50.1,49.0,30.05,South,186,0.0,0.0,96,0.00,,SKC,0.00,VWS V14.01,2013-11-07 06:11:00,
2013-11-07 01:16:00,50.2,49.1,30.05,South,186,0.0,0.0,96,0.00,,SKC,0.00,VWS V14.01,2013-11-07 06:16:00,
2013-11-07 01:21:00,50.2,49.1,30.04,South,186,0.0,0.0,96,0.00,,SKC,0.00,VWS V14.01,2013-11-07 06:21:00,
2013-11-07 01:26:00,50.4,49.3,30.04,South,186,0.0,0.0,96,0.00,,SKC,0.00,VWS V14.01,2013-11-07 06:26:00,
2013-11-07 01:31:00,50.4,49.3,30.04,South,186,0.0,0.0,96,0.00,,SKC,0.00,VWS V14.01,2013-11-07 06:31:00,
2013-11-07 01:36:00,50.4,49.3,30.03,South,186,0.0,0.0,96,0.00,,SKC,0.00,VWS V14.01,2013-11-07 06:36:00,
2013-11-07 01:41:00,50.4,49.3,30.03,South,186,3.0,3.0,96,0.00,,SKC,0.00,VWS V14.01,2013-11-07 06:41:00,
2013-11-07 01:46:00,50.5,49.7,30.03,South,186,0.0,2.0,97,0.00,,SKC,0.00,VWS V14.01,2013-11-07 06:46:00,
2013-11-07 01:51:00,50.8,50.0,30.02,South,186,0.0,0.0,97,0.00,,SKC,0.00,VWS V14.01,2013-11-07 06:51:00,
2013-11-07 01:56:00,51.1,50.3,30.02,South,186,0.0,0.0,97,0.00,,SKC,0.00,VWS V14.01,2013-11-07 06:56:00,
2013-11-07 02:01:00,51.3,50.5,30.02,South,186,0.0,0.0,97,0.00,,SKC,0.00,VWS V14.01,2013-11-07 07:01:00,
2013-11-07 02:05:00,51.1,50.3,30.02,South,186,0.0,0.0,97,0.00,,SKC,0.00,VWS V14.01,2013-11-07 07:05:00,
2013-11-07 02:11:00,50.8,49.7,30.02,South,186,0.0,0.0,96,0.00,,SKC,0.00,VWS V14.01,2013-11-07 07:11:00,
2013-11-07 02:16:00,50.8,50.0,30.02,South,186,0.0,0.0,97,0.00,,SKC,0.00,VWS V14.01,2013-11-07 07:16:00,
2013-11-07 02:21:00,51.1,50.3,30.01,South,186,0.0,0.0,97,0.00,,SKC,0.00,VWS V14.01,2013-11-07 07:21:00,
2013-11-07 02:25:00,51.3,50.5,30.01,South,186,0.0,0.0,97,0.00,,SKC,0.00,VWS V14.01,2013-11-07 07:25:00,
2013-11-07 02:30:00,51.3,50.5,30.01,South,186,0.0,0.0,97,0.00,,SKC,0.00,VWS V14.01,2013-11-07 07:30:00,
2013-11-07 02:35:00,51.3,50.5,30.00,South,186,0.0,0.0,97,0.00,,SKC,0.00,VWS V14.01,2013-11-07 07:35:00,
2013-11-07 02:40:00,51.7,50.9,30.00,South,186,0.0,0.0,97,0.00,,SKC,0.00,VWS V14.01,2013-11-07 07:40:00,
2013-11-07 02:45:00,52.0,51.2,30.00,South,186,0.0,0.0,97,0.00,,SKC,0.00,VWS V14.01,2013-11-07 07:45:00,
2013-11-07 02:50:00,52.3,51.5,29.99,South,186,0.0,0.0,97,0.00,,SKC,0.00,VWS V14.01,2013-11-07 07:50:00,
2013-11-07 02:55:00,52.8,51.7,29.99,South,186,0.0,0.0,96,0.00,,SKC,0.00,VWS V14.01,2013-11-07 07:55:00,
2013-11-07 03:00:00,53.3,52.2,29.99,South,186,0.0,0.0,96,0.00,,SKC,0.00,VWS V14.01,2013-11-07 08:00:00,
2013-11-07 03:05:00,53.3,51.6,29.98,South,186,0.0,0.0,94,0.00,,SKC,0.00,VWS V14.01,2013-11-07 08:05:00,
2013-11-07 03:10:00,52.8,50.8,29.98,South,186,0.0,0.0,93,0.00,,SKC,0.00,VWS V14.01,2013-11-07 08:10:00,
2013-11-07 03:15:00,52.6,51.2,29.98,South,186,0.0,0.0,95,0.00,,SKC,0.00,VWS V14.01,2013-11-07 08:15:00,
2013-11-07 03:20:00,52.9,51.2,29.97,South,186,0.0,0.0,94,0.00,,SKC,0.00,VWS V14.01,2013-11-07 08:20:00,
2013-11-07 03:25:00,52.6,50.6,29.97,South,186,0.0,0.0,93,0.00,,SKC,0.00,VWS V14.01,2013-11-07 08:25:00,
2013-11-07 03:30:00,52.2,50.5,29.97,South,186,0.0,0.0,94,0.00,,SKC,0.00,VWS V14.01,2013-11-07 08:30:00,
2013-11-07 03:35:00,52.0,50.3,29.97,South,186,0.0,0.0,94,0.00,,SKC,0.00,VWS V14.01,2013-11-07 08:35:00,
2013-11-07 03:40:00,51.7,50.0,29.97,South,186,0.0,0.0,94,0.00,,SKC,0.00,VWS V14.01,2013-11-07 08:40:00,
2013-11-07 03:45:00,51.4,49.7,29.97,South,186,0.0,0.0,94,0.00,,SKC,0.00,VWS V14.01,2013-11-07 08:45:00,
2013-11-07 03:50:00,50.7,48.8,29.96,South,186,0.0,0.0,93,0.00,,SKC,0.00,VWS V14.01,2013-11-07 08:50:00,
2013-11-07 03:55:00,49.9,48.0,29.96,South,186,0.0,0.0,93,0.00,,SKC,0.00,VWS V14.01,2013-11-07 08:55:00,
2013-11-07 04:00:00,49.6,48.0,29.96,South,186,1.0,2.0,94,0.00,,SKC,0.00,VWS V14.01,2013-11-07 09:00:00,
2013-11-07 04:05:00,49.9,48.5,29.95,South,186,0.0,0.0,95,0.00,,SKC,0.00,VWS V14.01,2013-11-07 09:05:00,
2013-11-07 04:10:00,50.1,49.0,29.95,South,186,0.0,0.0,96,0.00,,SKC,0.00,VWS V14.01,2013-11-07 09:10:00,
2013-11-07 04:15:00,49.9,48.8,29.95,South,186,2.0,3.0,96,0.00,,SKC,0.00,VWS V14.01,2013-11-07 09:15:00,
2013-11-07 04:20:00,49.9,48.8,29.95,South,188,0.0,3.0,96,0.00,,SKC,0.00,VWS V14.01,2013-11-07 09:20:00,
2013-11-07 04:25:00,49.9,48.8,29.95,South,188,0.0,0.0,96,0.00,,SKC,0.00,VWS V14.01,2013-11-07 09:25:00,
2013-11-07 04:30:00,50.2,49.4,29.95,South,188,0.0,0.0,97,0.00,,SKC,0.00,VWS V14.01,2013-11-07 09:30:00,
2013-11-07 04:35:00,50.1,49.0,29.94,South,188,0.0,0.0,96,0.00,,SKC,0.00,VWS V14.01,2013-11-07 09:35:00,
2013-11-07 04:40:00,49.8,48.7,29.94,South,188,0.0,0.0,96,0.00,,SKC,0.00,VWS V14.01,2013-11-07 09:40:00,
2013-11-07 04:45:00,49.5,48.4,29.94,South,188,0.0,0.0,96,0.00,,SKC,0.00,VWS V14.01,2013-11-07 09:45:00,
2013-11-07 04:50:00,49.4,48.3,29.94,South,188,0.0,0.0,96,0.00,,SKC,0.00,VWS V14.01,2013-11-07 09:50:00,
2013-11-07 04:55:00,48.9,47.8,29.94,South,188,0.0,0.0,96,0.00,,SKC,0.00,VWS V14.01,2013-11-07 09:55:00,
2013-11-07 05:00:00,49.1,48.3,29.94,South,188,0.0,0.0,97,0.00,,SKC,0.00,VWS V14.01,2013-11-07 10:00:00,
2013-11-07 05:05:00,49.2,48.4,29.95,South,188,0.0,0.0,97,0.00,,SKC,0.00,VWS V14.01,2013-11-07 10:05:00,
2013-11-07 05:10:00,49.4,48.6,29.95,South,188,0.0,3.0,97,0.00,,SKC,0.00,VWS V14.01,2013-11-07 10:10:00,
2013-11-07 05:15:00,49.4,48.6,29.95,South,188,0.0,0.0,97,0.00,,SKC,0.00,VWS V14.01,2013-11-07 10:15:00,
2013-11-07 05:20:00,49.6,48.8,29.94,South,188,0.0,1.0,97,0.00,,SKC,0.00,VWS V14.01,2013-11-07 10:20:00,
2013-11-07 05:25:00,49.9,49.4,29.94,South,188,2.0,2.0,98,0.00,,SKC,0.00,VWS V14.01,2013-11-07 10:25:00,
2013-11-07 05:30:00,50.5,50.0,29.94,South,188,0.0,2.0,98,0.00,,SKC,0.00,VWS V14.01,2013-11-07 10:30:00,
2013-11-07 05:35:00,50.8,50.3,29.95,South,188,0.0,0.0,98,0.00,,SKC,0.00,VWS V14.01,2013-11-07 10:35:00,
2013-11-07 05:40:00,51.0,50.5,29.95,South,188,0.0,0.0,98,0.00,,SKC,0.00,VWS V14.01,2013-11-07 10:40:00,
2013-11-07 05:45:00,51.0,50.5,29.95,South,188,0.0,0.0,98,0.00,,SKC,0.00,VWS V14.01,2013-11-07 10:45:00,
2013-11-07 05:50:00,50.7,50.2,29.95,South,188,0.0,0.0,98,0.00,,SKC,0.00,VWS V14.01,2013-11-07 10:50:00,
2013-11-07 05:55:00,49.8,49.0,29.95,South,188,0.0,0.0,97,0.00,,SKC,0.00,VWS V14.01,2013-11-07 10:55:00,
2013-11-07 06:00:00,49.6,48.8,29.95,South,188,0.0,0.0,97,0.00,,SKC,0.00,VWS V14.01,2013-11-07 11:00:00,
2013-11-07 06:05:00,50.1,49.6,29.96,South,188,0.0,0.0,98,0.00,,SKC,0.00,VWS V14.01,2013-11-07 11:05:00,
2013-11-07 06:10:00,50.4,49.9,29.96,South,188,0.0,0.0,98,0.00,,SKC,0.00,VWS V14.01,2013-11-07 11:10:00,
2013-11-07 06:15:00,50.5,50.0,29.96,South,188,0.0,0.0,98,0.00,,SKC,0.00,VWS V14.01,2013-11-07 11:15:00,
2013-11-07 06:20:00,50.5,50.0,29.96,South,188,0.0,0.0,98,0.00,,SKC,0.00,VWS V14.01,2013-11-07 11:20:00,
2013-11-07 06:25:00,50.8,50.3,29.96,South,188,0.0,0.0,98,0.00,,SKC,0.00,VWS V14.01,2013-11-07 11:25:00,
2013-11-07 06:30:00,50.7,50.2,29.96,South,188,0.0,1.0,98,0.00,,SKC,0.00,VWS V14.01,2013-11-07 11:30:00,
2013-11-07 06:34:00,50.8,50.3,29.95,South,188,0.0,0.0,98,0.00,,SKC,0.00,VWS V14.01,2013-11-07 11:34:00,
2013-11-07 06:39:00,51.3,50.8,29.95,South,188,0.0,0.0,98,0.00,,SKC,0.00,VWS V14.01,2013-11-07 11:39:00,
2013-11-07 06:44:00,51.0,50.5,29.95,South,188,0.0,0.0,98,0.00,,SKC,0.00,VWS V14.01,2013-11-07 11:44:00,
2013-11-07 06:49:00,51.1,50.6,29.95,South,188,0.0,0.0,98,0.00,,SKC,0.00,VWS V14.01,2013-11-07 11:49:00,
2013-11-07 06:54:00,51.3,50.8,29.95,South,188,0.0,0.0,98,0.00,,SKC,0.00,VWS V14.01,2013-11-07 11:54:00,
2013-11-07 06:59:00,51.3,50.8,29.95,South,188,0.0,2.0,98,0.00,,SKC,0.00,VWS V14.01,2013-11-07 11:59:00,
2013-11-07 07:04:00,51.9,51.4,29.95,South,188,0.0,0.0,98,0.00,,SKC,0.00,VWS V14.01,2013-11-07 12:04:00,
2013-11-07 07:09:00,52.2,51.7,29.95,South,188,0.0,0.0,98,0.00,,SKC,0.00,VWS V14.01,2013-11-07 12:09:00,
2013-11-07 07:14:00,52.6,52.0,29.95,South,188,0.0,3.0,98,0.00,,SKC,0.00,VWS V14.01,2013-11-07 12:14:00,
2013-11-07 07:19:00,52.6,52.0,29.94,South,188,0.0,0.0,98,0.00,,SKC,0.00,VWS V14.01,2013-11-07 12:19:00,
2013-11-07 07:24:00,52.8,52.2,29.94,South,188,0.0,0.0,98,0.00,,SKC,0.00,VWS V14.01,2013-11-07 12:24:00,
2013-11-07 07:29:00,52.8,52.0,29.94,South,188,0.0,0.0,97,0.00,,SKC,0.00,VWS V14.01,2013-11-07 12:29:00,
2013-11-07 07:34:00,52.6,51.8,29.95,South,188,0.0,0.0,97,0.00,,SKC,0.00,VWS V14.01,2013-11-07 12:34:00,
2013-11-07 07:39:00,52.8,52.2,29.95,South,188,2.0,3.0,98,0.00,,SKC,0.00,VWS V14.01,2013-11-07 12:39:00,
2013-11-07 07:44:00,53.1,52.5,29.95,South,188,2.0,4.0,98,0.00,,SKC,0.00,VWS V14.01,2013-11-07 12:44:00,
2013-11-07 07:49:00,53.3,52.8,29.94,South,188,0.0,0.0,98,0.00,,SKC,0.00,VWS V14.01,2013-11-07 12:49:00,
2013-11-07 07:54:00,53.5,52.7,29.94,South,188,0.0,0.0,97,0.00,,SKC,0.00,VWS V14.01,2013-11-07 12:54:00,
2013-11-07 07:59:00,53.5,52.7,29.94,South,188,0.0,0.0,97,0.00,,SKC,0.00,VWS V14.01,2013-11-07 12:59:00,
2013-11-07 08:04:00,53.3,52.5,29.94,South,188,0.0,0.0,97,0.00,,SKC,0.00,VWS V14.01,2013-11-07 13:04:00,
2013-11-07 08:09:00,53.2,52.4,29.94,South,188,0.0,0.0,97,0.00,,SKC,0.00,VWS V14.01,2013-11-07 13:09:00,
2013-11-07 08:14:00,53.3,52.5,29.94,South,188,0.0,0.0,97,0.00,,SKC,0.00,VWS V14.01,2013-11-07 13:14:00,
2013-11-07 08:19:00,53.3,52.5,29.95,South,188,0.0,0.0,97,0.00,,SKC,0.00,VWS V14.01,2013-11-07 13:19:00,
2013-11-07 08:24:00,53.5,53.0,29.95,South,188,0.0,0.0,98,0.00,,SKC,0.00,VWS V14.01,2013-11-07 13:24:00,
2013-11-07 08:29:00,53.5,52.7,29.95,South,188,0.0,0.0,97,0.00,,SKC,0.00,VWS V14.01,2013-11-07 13:29:00,
2013-11-07 08:34:00,53.3,52.5,29.95,South,188,0.0,0.0,97,0.00,,SKC,0.00,VWS V14.01,2013-11-07 13:34:00,
2013-11-07 08:39:00,53.5,53.0,29.95,South,188,0.0,0.0,98,0.00,,SKC,0.00,VWS V14.01,2013-11-07 13:39:00,
2013-11-07 08:44:00,53.6,53.0,29.95,South,188,0.0,0.0,98,0.00,,SKC,0.00,VWS V14.01,2013-11-07 13:44:00,
2013-11-07 08:49:00,53.8,53.2,29.95,South,188,0.0,0.0,98,0.00,,SKC,0.00,VWS V14.01,2013-11-07 13:49:00,
2013-11-07 08:54:00,53.9,53.3,29.95,South,188,0.0,0.0,98,0.00,,SKC,0.00,VWS V14.01,2013-11-07 13:54:00,
2013-11-07 08:59:00,54.1,53.5,29.95,South,188,0.0,0.0,98,0.00,,SKC,0.00,VWS V14.01,2013-11-07 13:59:00,
2013-11-07 09:04:00,54.1,53.5,29.95,South,188,0.0,0.0,98,0.00,,SKC,0.00,VWS V14.01,2013-11-07 14:04:00,
2013-11-07 09:09:00,54.2,53.7,29.95,South,188,0.0,0.0,98,0.00,,SKC,0.00,VWS V14.01,2013-11-07 14:09:00,
2013-11-07 09:14:00,54.2,53.7,29.95,South,188,0.0,0.0,98,0.00,,SKC,0.00,VWS V14.01,2013-11-07 14:14:00,
2013-11-07 09:19:00,54.7,54.2,29.94,South,188,0.0,0.0,98,0.00,,SKC,0.00,VWS V14.01,2013-11-07 14:19:00,
2013-11-07 09:24:00,54.8,54.2,29.94,South,188,0.0,0.0,98,0.00,,SKC,0.00,VWS V14.01,2013-11-07 14:24:00,
2013-11-07 09:29:00,54.8,54.2,29.94,South,188,0.0,0.0,98,0.00,,SKC,0.00,VWS V14.01,2013-11-07 14:29:00,
2013-11-07 09:34:00,55.0,54.5,29.93,South,188,0.0,0.0,98,0.00,,SKC,0.00,VWS V14.01,2013-11-07 14:34:00,
2013-11-07 09:39:00,55.1,54.5,29.93,South,188,0.0,0.0,98,0.00,,SKC,0.00,VWS V14.01,2013-11-07 14:39:00,
2013-11-07 09:44:00,55.1,54.5,29.93,South,188,0.0,0.0,98,0.00,,SKC,0.00,VWS V14.01,2013-11-07 14:44:00,
2013-11-07 09:49:00,54.8,54.2,29.93,South,188,0.0,0.0,98,0.00,,SKC,0.00,VWS V14.01,2013-11-07 14:49:00,
2013-11-07 09:54:00,55.0,54.5,29.93,South,188,0.0,0.0,98,0.00,,SKC,0.00,VWS V14.01,2013-11-07 14:54:00,
2013-11-07 09:59:00,55.1,54.5,29.93,South,188,0.0,0.0,98,0.00,,SKC,0.00,VWS V14.01,2013-11-07 14:59:00,
2013-11-07 10:04:00,55.7,55.2,29.93,South,188,0.0,0.0,98,0.00,,SKC,0.00,VWS V14.01,2013-11-07 15:04:00,
2013-11-07 10:09:00,56.3,55.8,29.93,South,188,0.0,0.0,98,0.00,,SKC,0.00,VWS V14.01,2013-11-07 15:09:00,
2013-11-07 10:14:00,56.6,56.0,29.93,South,188,0.0,0.0,98,0.00,,SKC,0.00,VWS V14.01,2013-11-07 15:14:00,
2013-11-07 10:19:00,56.7,55.9,29.93,South,188,0.0,0.0,97,0.00,,SKC,0.00,VWS V14.01,2013-11-07 15:19:00,
2013-11-07 10:24:00,57.0,56.2,29.93,South,188,0.0,0.0,97,0.00,,SKC,0.00,VWS V14.01,2013-11-07 15:24:00,
2013-11-07 10:29:00,57.3,56.5,29.93,South,188,0.0,0.0,97,0.00,,SKC,0.00,VWS V14.01,2013-11-07 15:29:00,
2013-11-07 10:34:00,57.5,56.4,29.93,South,188,0.0,0.0,96,0.00,,SKC,0.00,VWS V14.01,2013-11-07 15:34:00,
2013-11-07 10:39:00,58.0,56.6,29.93,South,188,0.0,0.0,95,0.00,,SKC,0.00,VWS V14.01,2013-11-07 15:39:00,
2013-11-07 10:44:00,58.4,56.4,29.93,South,188,0.0,0.0,93,0.00,,SKC,0.00,VWS V14.01,2013-11-07 15:44:00,
2013-11-07 10:49:00,58.7,56.4,29.93,South,188,0.0,2.0,92,0.00,,SKC,0.00,VWS V14.01,2013-11-07 15:49:00,
2013-11-07 10:54:00,58.9,55.7,29.93,WSW,251,6.0,7.0,89,0.00,,SKC,0.00,VWS V14.01,2013-11-07 15:54:00,
2013-11-07 10:59:00,58.9,53.4,29.93,WNW,303,6.0,8.0,82,0.00,,SKC,0.00,VWS V14.01,2013-11-07 15:59:00,
2013-11-07 11:04:00,59.0,52.8,29.94,NW,310,1.0,6.0,80,0.00,,SKC,0.00,VWS V14.01,2013-11-07 16:04:00,
2013-11-07 11:09:00,59.0,51.8,29.94,WSW,248,3.0,14.0,77,0.00,,SKC,0.00,VWS V14.01,2013-11-07 16:09:00,
2013-11-07 11:14:00,59.2,50.9,29.94,West,271,7.0,9.0,74,0.00,,SKC,0.00,VWS V14.01,2013-11-07 16:14:00,
2013-11-07 11:19:00,59.3,50.3,29.94,WNW,299,3.0,15.0,72,0.00,,SKC,0.00,VWS V14.01,2013-11-07 16:19:00,
2013-11-07 11:23:00,59.5,50.1,29.94,WSW,256,11.0,14.0,71,0.00,,SKC,0.00,VWS V14.01,2013-11-07 16:23:00,
2013-11-07 11:28:00,59.3,48.8,29.94,NW,311,4.0,16.0,68,0.01,,SKC,0.01,VWS V14.01,2013-11-07 16:28:00,
2013-11-07 11:33:00,59.0,48.5,29.94,West,265,6.0,18.0,68,0.01,,SKC,0.01,VWS V14.01,2013-11-07 16:33:00,
2013-11-07 11:38:00,59.0,48.9,29.94,West,268,13.0,17.0,69,0.01,,SKC,0.01,VWS V14.01,2013-11-07 16:38:00,
2013-11-07 11:43:00,59.2,48.7,29.94,WNW,298,14.0,22.0,68,0.01,,SKC,0.01,VWS V14.01,2013-11-07 16:43:00,
2013-11-07 11:48:00,59.2,48.3,29.95,WNW,297,7.0,25.0,67,0.01,,SKC,0.01,VWS V14.01,2013-11-07 16:48:00,
2013-11-07 11:53:00,59.0,48.5,29.95,West,271,6.0,14.0,68,0.01,,SKC,0.01,VWS V14.01,2013-11-07 16:53:00,
2013-11-07 11:58:00,59.0,47.7,29.95,NNW,337,9.0,18.0,66,0.01,,SKC,0.01,VWS V14.01,2013-11-07 16:58:00,
2013-11-07 12:03:00,59.2,47.9,29.95,West,266,3.0,11.0,66,0.01,,SKC,0.01,VWS V14.01,2013-11-07 17:03:00,
2013-11-07 12:08:00,59.0,47.7,29.95,West,259,4.0,10.0,66,0.01,,SKC,0.01,VWS V14.01,2013-11-07 17:08:00,
2013-11-07 12:13:00,58.4,46.7,29.95,NW,314,13.0,17.0,65,0.01,,SKC,0.01,VWS V14.01,2013-11-07 17:13:00,
2013-11-07 12:18:00,58.1,46.8,29.95,NW,320,3.0,15.0,66,0.01,,SKC,0.01,VWS V14.01,2013-11-07 17:18:00,
2013-11-07 12:23:00,58.4,46.3,29.95,NW,326,3.0,18.0,64,0.01,,SKC,0.01,VWS V14.01,2013-11-07 17:23:00,
2013-11-07 12:28:00,58.3,47.0,29.95,NW,311,4.0,13.0,66,0.00,,SKC,0.01,VWS V14.01,2013-11-07 17:28:00,
2013-11-07 12:33:00,58.1,46.4,29.94,NW,320,6.0,16.0,65,0.00,,SKC,0.01,VWS V14.01,2013-11-07 17:33:00,
2013-11-07 12:38:00,58.6,46.5,29.94,NNW,340,4.0,10.0,64,0.00,,SKC,0.01,VWS V14.01,2013-11-07 17:38:00,
2013-11-07 12:43:00,59.2,46.6,29.94,WNW,300,3.0,4.0,63,0.00,,SKC,0.01,VWS V14.01,2013-11-07 17:43:00,
2013-11-07 12:48:00,59.5,45.6,29.94,WNW,297,6.0,6.0,60,0.00,,SKC,0.01,VWS V14.01,2013-11-07 17:48:00,
2013-11-07 12:53:00,59.3,44.5,29.94,WNW,287,2.0,10.0,58,0.00,,SKC,0.01,VWS V14.01,2013-11-07 17:53:00,
2013-11-07 12:58:00,59.0,45.6,29.94,NW,313,3.0,7.0,61,0.00,,SKC,0.01,VWS V14.01,2013-11-07 17:58:00,
2013-11-07 13:03:00,58.9,43.7,29.95,West,263,4.0,11.0,57,0.00,,SKC,0.01,VWS V14.01,2013-11-07 18:03:00,
2013-11-07 13:08:00,58.3,42.7,29.95,NW,321,12.0,12.0,56,0.00,,SKC,0.01,VWS V14.01,2013-11-07 18:08:00,
2013-11-07 13:13:00,57.8,43.1,29.95,West,260,10.0,12.0,58,0.00,,SKC,0.01,VWS V14.01,2013-11-07 18:13:00,
2013-11-07 13:18:00,57.5,43.7,29.95,WNW,285,9.0,12.0,60,0.00,,SKC,0.01,VWS V14.01,2013-11-07 18:18:00,
2013-11-07 13:23:00,56.6,42.0,29.95,North,355,13.0,13.0,58,0.00,,SKC,0.01,VWS V14.01,2013-11-07 18:23:00,
2013-11-07 13:28:00,56.0,41.5,29.95,WNW,300,5.0,6.0,58,0.00,,SKC,0.01,VWS V14.01,2013-11-07 18:28:00,
2013-11-07 13:33:00,55.6,41.1,29.96,WSW,243,18.0,18.0,58,0.00,,SKC,0.01,VWS V14.01,2013-11-07 18:33:00,
2013-11-07 13:38:00,55.1,40.6,29.96,WNW,283,3.0,15.0,58,0.00,,SKC,0.01,VWS V14.01,2013-11-07 18:38:00,
2013-11-07 13:43:00,54.8,39.9,29.96,West,263,6.0,20.0,57,0.00,,SKC,0.01,VWS V14.01,2013-11-07 18:43:00,
2013-11-07 13:48:00,54.8,39.9,29.97,WNW,283,4.0,6.0,57,0.00,,SKC,0.01,VWS V14.01,2013-11-07 18:48:00,
2013-11-07 13:53:00,55.1,39.2,29.97,WNW,297,8.0,11.0,55,0.00,,SKC,0.01,VWS V14.01,2013-11-07 18:53:00,
2013-11-07 13:58:00,55.3,39.0,29.97,West,276,7.0,7.0,54,0.00,,SKC,0.01,VWS V14.01,2013-11-07 18:58:00,
2013-11-07 14:03:00,55.3,39.0,29.98,West,276,15.0,16.0,54,0.00,,SKC,0.01,VWS V14.01,2013-11-07 19:03:00,
2013-11-07 14:08:00,54.5,38.7,29.98,WNW,282,2.0,9.0,55,0.00,,SKC,0.01,VWS V14.01,2013-11-07 19:08:00,
2013-11-07 14:13:00,53.9,39.5,29.98,WSW,240,12.0,12.0,58,0.00,,SKC,0.01,VWS V14.01,2013-11-07 19:13:00,
2013-11-07 14:18:00,53.2,37.0,29.98,WNW,286,15.0,27.0,54,0.00,,SKC,0.01,VWS V14.01,2013-11-07 19:18:00,
2013-11-07 14:23:00,52.6,38.3,29.98,NW,304,17.0,22.0,58,0.00,,SKC,0.01,VWS V14.01,2013-11-07 19:23:00,
2013-11-07 14:28:00,52.5,36.8,29.98,West,279,8.0,22.0,55,0.00,,SKC,0.01,VWS V14.01,2013-11-07 19:28:00,
2013-11-07 14:33:00,52.6,36.9,29.97,West,264,23.0,31.0,55,0.00,,SKC,0.01,VWS V14.01,2013-11-07 19:33:00,
2013-11-07 14:38:00,52.6,36.9,29.97,WNW,285,13.0,23.0,55,0.00,,SKC,0.01,VWS V14.01,2013-11-07 19:38:00,
2013-11-07 14:43:00,52.2,37.0,29.97,WNW,283,5.0,15.0,56,0.00,,SKC,0.01,VWS V14.01,2013-11-07 19:43:00,
2013-11-07 14:48:00,52.0,35.9,30.00,NW,306,4.0,4.0,54,0.00,,SKC,0.01,VWS V14.01,2013-11-07 19:48:00,
2013-11-07 14:53:00,51.9,35.8,30.00,WNW,300,4.0,12.0,54,0.00,,SKC,0.01,VWS V14.01,2013-11-07 19:53:00,
2013-11-07 14:58:00,51.7,35.1,30.00,WNW,288,6.0,16.0,53,0.00,,SKC,0.01,VWS V14.01,2013-11-07 19:58:00,
2013-11-07 15:03:00,51.4,35.3,30.00,WNW,298,9.0,17.0,54,0.00,,SKC,0.01,VWS V14.01,2013-11-07 20:03:00,
2013-11-07 15:08:00,51.3,35.7,30.00,West,265,5.0,6.0,55,0.00,,SKC,0.01,VWS V14.01,2013-11-07 20:08:00,
2013-11-07 15:12:00,51.3,35.7,30.00,West,276,5.0,6.0,55,0.00,,SKC,0.01,VWS V14.01,2013-11-07 20:12:00,
2013-11-07 15:17:00,51.1,35.0,30.00,WNW,294,7.0,7.0,54,0.00,,SKC,0.01,VWS V14.01,2013-11-07 20:17:00,
2013-11-07 15:22:00,51.0,34.0,30.00,NNW,332,4.0,7.0,52,0.00,,SKC,0.01,VWS V14.01,2013-11-07 20:22:00,
2013-11-07 15:27:00,51.0,35.0,30.00,WNW,300,7.0,7.0,54,0.00,,SKC,0.01,VWS V14.01,2013-11-07 20:27:00,
2013-11-07 15:32:00,51.0,33.5,30.00,North,349,10.0,13.0,51,0.00,,SKC,0.01,VWS V14.01,2013-11-07 20:32:00,
2013-11-07 15:37:00,51.0,34.0,30.00,WNW,288,7.0,10.0,52,0.00,,SKC,0.01,VWS V14.01,2013-11-07 20:37:00,
2013-11-07 15:42:00,51.0,34.0,30.00,WSW,258,11.0,11.0,52,0.00,,SKC,0.01,VWS V14.01,2013-11-07 20:42:00,
2013-11-07 15:47:00,51.1,34.1,30.00,West,279,8.0,8.0,52,0.00,,SKC,0.01,VWS V14.01,2013-11-07 20:47:00,
2013-11-07 15:52:00,51.1,33.6,30.00,West,275,4.0,5.0,51,0.00,,SKC,0.01,VWS V14.01,2013-11-07 20:52:00,
2013-11-07 15:57:00,51.1,34.1,30.00,West,266,3.0,7.0,52,0.00,,SKC,0.01,VWS V14.01,2013-11-07 20:57:00,
2013-11-07 16:02:00,51.1,34.1,30.01,NW,324,6.0,9.0,52,0.00,,SKC,0.01,VWS V14.01,2013-11-07 21:02:00,
2013-11-07 16:07:00,51.1,34.6,30.01,WNW,294,7.0,10.0,53,0.00,,SKC,0.01,VWS V14.01,2013-11-07 21:07:00,
2013-11-07 16:12:00,51.0,34.0,30.01,WNW,296,4.0,5.0,52,0.00,,SKC,0.01,VWS V14.01,2013-11-07 21:12:00,
2013-11-07 16:17:00,50.7,34.2,30.02,West,281,11.0,11.0,53,0.00,,SKC,0.01,VWS V14.01,2013-11-07 21:17:00,
2013-11-07 16:22:00,50.5,33.5,30.02,WNW,302,5.0,6.0,52,0.00,,SKC,0.01,VWS V14.01,2013-11-07 21:22:00,
2013-11-07 16:27:00,50.5,34.0,30.02,NW,315,7.0,13.0,53,0.00,,SKC,0.01,VWS V14.01,2013-11-07 21:27:00,
2013-11-07 16:32:00,50.4,33.0,30.02,WSW,257,13.0,16.0,51,0.00,,SKC,0.01,VWS V14.01,2013-11-07 21:32:00,
2013-11-07 16:37:00,50.1,32.7,30.02,NW,315,3.0,13.0,51,0.00,,SKC,0.01,VWS V14.01,2013-11-07 21:37:00,
2013-11-07 16:42:00,49.8,32.4,30.02,NW,304,5.0,10.0,51,0.00,,SKC,0.01,VWS V14.01,2013-11-07 21:42:00,
2013-11-07 16:47:00,49.5,32.6,30.02,NW,307,8.0,9.0,52,0.00,,SKC,0.01,VWS V14.01,2013-11-07 21:47:00,
2013-11-07 16:52:00,49.4,32.0,30.02,WNW,296,6.0,9.0,51,0.00,,SKC,0.01,VWS V14.01,2013-11-07 21:52:00,
2013-11-07 16:57:00,49.1,31.8,30.02,West,275,3.0,6.0,51,0.00,,SKC,0.01,VWS V14.01,2013-11-07 21:57:00,
2013-11-07 17:02:00,48.8,31.5,30.03,West,281,9.0,10.0,51,0.00,,SKC,0.01,VWS V14.01,2013-11-07 22:02:00,
2013-11-07 17:07:00,48.6,30.8,30.03,NW,319,5.0,7.0,50,0.00,,SKC,0.01,VWS V14.01,2013-11-07 22:07:00,
2013-11-07 17:12:00,48.5,31.2,30.03,West,264,3.0,3.0,51,0.00,,SKC,0.01,VWS V14.01,2013-11-07 22:12:00,
2013-11-07 17:17:00,48.2,31.4,30.04,WNW,296,2.0,4.0,52,0.00,,SKC,0.01,VWS V14.01,2013-11-07 22:17:00,
2013-11-07 17:22:00,47.9,31.6,30.04,WNW,296,0.0,0.0,53,0.00,,SKC,0.01,VWS V14.01,2013-11-07 22:22:00,
2013-11-07 17:27:00,47.6,31.8,30.04,WNW,294,4.0,5.0,54,0.00,,SKC,0.01,VWS V14.01,2013-11-07 22:27:00,
2013-11-07 17:32:00,47.3,31.5,30.05,WNW,294,0.0,2.0,54,0.00,,SKC,0.01,VWS V14.01,2013-11-07 22:32:00,
2013-11-07 17:37:00,47.1,31.8,30.05,WNW,294,5.0,5.0,55,0.00,,SKC,0.01,VWS V14.01,2013-11-07 22:37:00,
2013-11-07 17:42:00,47.0,31.7,30.05,WNW,294,0.0,0.0,55,0.00,,SKC,0.01,VWS V14.01,2013-11-07 22:42:00,
2013-11-07 17:47:00,46.7,31.9,30.06,WNW,295,0.0,0.0,56,0.00,,SKC,0.01,VWS V14.01,2013-11-07 22:47:00,
2013-11-07 17:52:00,46.4,32.0,30.06,WNW,295,0.0,0.0,57,0.00,,SKC,0.01,VWS V14.01,2013-11-07 22:52:00,
2013-11-07 17:57:00,46.1,32.2,30.06,NW,321,1.0,1.0,58,0.00,,SKC,0.01,VWS V14.01,2013-11-07 22:57:00,
2013-11-07 18:02:00,46.2,30.9,30.06,WNW,288,6.0,6.0,55,0.00,,SKC,0.01,VWS V14.01,2013-11-07 23:02:00,
2013-11-07 18:07:00,46.2,31.8,30.06,WNW,291,1.0,4.0,57,0.00,,SKC,0.01,VWS V14.01,2013-11-07 23:07:00,
2013-11-07 18:12:00,46.0,31.2,30.06,WNW,292,4.0,5.0,56,0.00,,SKC,0.01,VWS V14.01,2013-11-07 23:12:00,
2013-11-07 18:17:00,46.0,31.6,30.06,WNW,286,2.0,2.0,57,0.00,,SKC,0.01,VWS V14.01,2013-11-07 23:17:00,
2013-11-07 18:22:00,46.0,31.2,30.06,West,278,0.0,0.0,56,0.00,,SKC,0.01,VWS V14.01,2013-11-07 23:22:00,
2013-11-07 18:27:00,45.8,31.5,30.06,West,281,0.0,0.0,57,0.00,,SKC,0.01,VWS V14.01,2013-11-07 23:27:00,
2013-11-07 18:32:00,45.8,31.0,30.06,WNW,301,2.0,4.0,56,0.00,,SKC,0.01,VWS V14.01,2013-11-07 23:32:00,
2013-11-07 18:37:00,45.8,31.5,30.06,WNW,301,2.0,3.0,57,0.00,,SKC,0.01,VWS V14.01,2013-11-07 23:37:00,
2013-11-07 18:42:00,45.8,31.0,30.06,West,274,1.0,3.0,56,0.00,,SKC,0.01,VWS V14.01,2013-11-07 23:42:00,
2013-11-07 18:47:00,45.8,31.0,30.06,North,359,0.0,0.0,56,0.00,,SKC,0.01,VWS V14.01,2013-11-07 23:47:00,
2013-11-07 18:52:00,45.7,31.4,30.06,WNW,291,0.0,2.0,57,0.00,,SKC,0.01,VWS V14.01,2013-11-07 23:52:00,
2013-11-07 18:57:00,45.7,31.4,30.06,NW,310,3.0,4.0,57,0.00,,SKC,0.01,VWS V14.01,2013-11-07 23:57:00,
2013-11-07 19:02:00,45.8,31.0,30.07,NW,311,3.0,4.0,56,0.00,,SKC,0.01,VWS V14.01,2013-11-08 00:02:00,
2013-11-07 19:07:00,45.8,31.0,30.07,WNW,290,5.0,6.0,56,0.00,,SKC,0.01,VWS V14.01,2013-11-08 00:07:00,
2013-11-07 19:12:00,46.0,31.6,30.07,West,279,17.0,17.0,57,0.00,,SKC,0.01,VWS V14.01,2013-11-08 00:12:00,
2013-11-07 19:17:00,45.8,31.5,30.07,NW,325,4.0,6.0,57,0.00,,SKC,0.01,VWS V14.01,2013-11-08 00:17:00,
2013-11-07 19:22:00,45.8,31.0,30.07,NNW,327,1.0,1.0,56,0.00,,SKC,0.01,VWS V14.01,2013-11-08 00:22:00,
2013-11-07 19:27:00,45.7,31.4,30.07,NW,322,6.0,6.0,57,0.00,,SKC,0.01,VWS V14.01,2013-11-08 00:27:00,
2013-11-07 19:32:00,45.7,30.9,30.07,NW,316,0.0,0.0,56,0.00,,SKC,0.01,VWS V14.01,2013-11-08 00:32:00,
2013-11-07 19:37:00,45.7,31.4,30.07,WNW,284,9.0,9.0,57,0.00,,SKC,0.01,VWS V14.01,2013-11-08 00:37:00,
2013-11-07 19:42:00,45.7,30.5,30.07,WNW,291,3.0,3.0,55,0.00,,SKC,0.01,VWS V14.01,2013-11-08 00:42:00,
2013-11-07 19:47:00,45.7,30.9,30.07,West,273,0.0,0.0,56,0.00,,SKC,0.01,VWS V14.01,2013-11-08 00:47:00,
2013-11-07 19:52:00,45.4,31.1,30.07,West,273,3.0,4.0,57,0.00,,SKC,0.01,VWS V14.01,2013-11-08 00:52:00,
2013-11-07 19:57:00,45.2,30.9,30.07,West,276,1.0,1.0,57,0.00,,SKC,0.01,VWS V14.01,2013-11-08 00:57:00,
2013-11-07 20:02:00,45.1,30.8,30.07,West,276,0.0,0.0,57,0.00,,SKC,0.01,VWS V14.01,2013-11-08 01:02:00,
2013-11-07 20:07:00,44.9,31.0,30.07,West,278,3.0,4.0,58,0.00,,SKC,0.01,VWS V14.01,2013-11-08 01:07:00,
2013-11-07 20:12:00,44.9,30.6,30.07,WNW,293,3.0,10.0,57,0.00,,SKC,0.01,VWS V14.01,2013-11-08 01:12:00,
2013-11-07 20:17:00,45.1,30.4,30.07,WNW,291,6.0,12.0,56,0.00,,SKC,0.01,VWS V14.01,2013-11-08 01:17:00,
2013-11-07 20:22:00,45.1,30.4,30.07,WNW,292,10.0,10.0,56,0.00,,SKC,0.01,VWS V14.01,2013-11-08 01:22:00,
2013-11-07 20:27:00,45.1,30.4,30.07,WNW,293,0.0,10.0,56,0.00,,SKC,0.01,VWS V14.01,2013-11-08 01:27:00,
2013-11-07 20:32:00,44.8,30.1,30.07,WNW,288,3.0,9.0,56,0.00,,SKC,0.01,VWS V14.01,2013-11-08 01:32:00,
2013-11-07 20:37:00,44.8,30.5,30.07,NW,317,6.0,7.0,57,0.00,,SKC,0.01,VWS V14.01,2013-11-08 01:37:00,
2013-11-07 20:42:00,44.9,30.2,30.07,WNW,300,0.0,6.0,56,0.00,,SKC,0.01,VWS V14.01,2013-11-08 01:42:00,
2013-11-07 20:47:00,44.6,30.3,30.07,WNW,291,0.0,6.0,57,0.00,,SKC,0.01,VWS V14.01,2013-11-08 01:47:00,
2013-11-07 20:52:00,44.2,30.0,30.07,NW,309,10.0,12.0,57,0.00,,SKC,0.01,VWS V14.01,2013-11-08 01:52:00,
2013-11-07 20:57:00,44.2,30.4,30.07,West,276,4.0,10.0,58,0.00,,SKC,0.01,VWS V14.01,2013-11-08 01:57:00,
2013-11-07 21:02:00,44.3,29.2,30.07,WNW,285,6.0,17.0,55,0.00,,SKC,0.01,VWS V14.01,2013-11-08 02:02:00,
2013-11-07 21:07:00,44.5,29.4,30.07,WNW,294,7.0,9.0,55,0.00,,SKC,0.01,VWS V14.01,2013-11-08 02:07:00,
2013-11-07 21:12:00,44.5,28.9,30.07,WNW,290,4.0,6.0,54,0.00,,SKC,0.01,VWS V14.01,2013-11-08 02:12:00,
2013-11-07 21:17:00,44.5,29.8,30.07,WNW,290,0.0,4.0,56,0.00,,SKC,0.01,VWS V14.01,2013-11-08 02:17:00,
2013-11-07 21:22:00,44.2,29.1,30.07,WSW,250,6.0,9.0,55,0.00,,SKC,0.01,VWS V14.01,2013-11-08 02:22:00,
2013-11-07 21:27:00,44.1,29.4,30.07,WNW,294,2.0,11.0,56,0.00,,SKC,0.01,VWS V14.01,2013-11-08 02:27:00,
2013-11-07 21:32:00,43.6,29.4,30.07,WNW,288,2.0,5.0,57,0.00,,SKC,0.01,VWS V14.01,2013-11-08 02:32:00,
2013-11-07 21:37:00,43.5,28.9,30.07,WNW,295,1.0,8.0,56,0.00,,SKC,0.01,VWS V14.01,2013-11-08 02:37:00,
2013-11-07 21:42:00,43.2,29.4,30.07,NW,309,5.0,5.0,58,0.00,,SKC,0.01,VWS V14.01,2013-11-08 02:42:00,
2013-11-07 21:47:00,43.1,28.9,30.08,NW,308,0.0,5.0,57,0.00,,SKC,0.01,VWS V14.01,2013-11-08 02:47:00,
2013-11-07 21:52:00,42.9,29.2,30.08,NW,307,0.0,4.0,58,0.00,,SKC,0.01,VWS V14.01,2013-11-08 02:52:00,
2013-11-07 21:57:00,42.8,29.5,30.08,West,265,6.0,12.0,59,0.00,,SKC,0.01,VWS V14.01,2013-11-08 02:57:00,
2013-11-07 22:02:00,42.6,28.9,30.08,WNW,296,0.0,6.0,58,0.00,,SKC,0.01,VWS V14.01,2013-11-08 03:02:00,
2013-11-07 22:07:00,42.6,29.3,30.08,West,272,4.0,12.0,59,0.00,,SKC,0.01,VWS V14.01,2013-11-08 03:07:00,
2013-11-07 22:12:00,42.9,29.2,30.08,NW,311,3.0,6.0,58,0.00,,SKC,0.01,VWS V14.01,2013-11-08 03:12:00,
2013-11-07 22:17:00,43.2,28.6,30.08,West,281,3.0,14.0,56,0.00,,SKC,0.01,VWS V14.01,2013-11-08 03:17:00,
2013-11-07 22:22:00,43.2,28.6,30.08,West,280,0.0,5.0,56,0.00,,SKC,0.01,VWS V14.01,2013-11-08 03:22:00,
2013-11-07 22:27:00,43.2,28.6,30.08,West,264,3.0,14.0,56,0.00,,SKC,0.01,VWS V14.01,2013-11-08 03:27:00,
2013-11-07 22:32:00,43.2,29.0,30.08,NNW,340,0.0,11.0,57,0.00,,SKC,0.01,VWS V14.01,2013-11-08 03:32:00,
2013-11-07 22:37:00,42.9,28.7,30.08,NNW,340,0.0,3.0,57,0.00,,SKC,0.01,VWS V14.01,2013-11-08 03:37:00,
2013-11-07 22:42:00,42.6,28.9,30.08,NNW,340,3.0,3.0,58,0.00,,SKC,0.01,VWS V14.01,2013-11-08 03:42:00,
2013-11-07 22:47:00,41.9,29.5,30.08,NNW,340,0.0,3.0,61,0.00,,SKC,0.01,VWS V14.01,2013-11-08 03:47:00,
2013-11-07 22:52:00,41.9,28.2,30.08,West,276,5.0,7.0,58,0.00,,SKC,0.01,VWS V14.01,2013-11-08 03:52:00,
2013-11-07 22:57:00,42.2,28.5,30.08,West,277,2.0,4.0,58,0.00,,SKC,0.01,VWS V14.01,2013-11-08 03:57:00,
2013-11-07 23:02:00,42.1,28.8,30.08,West,277,2.0,2.0,59,0.00,,SKC,0.01,VWS V14.01,2013-11-08 04:02:00,
2013-11-07 23:07:00,41.8,28.1,30.08,West,277,0.0,4.0,58,0.00,,SKC,0.01,VWS V14.01,2013-11-08 04:07:00,
2013-11-07 23:12:00,41.5,28.7,30.08,West,273,4.0,5.0,60,0.00,,SKC,0.01,VWS V14.01,2013-11-08 04:12:00,
2013-11-07 23:17:00,41.3,28.5,30.08,West,271,3.0,5.0,60,0.00,,SKC,0.01,VWS V14.01,2013-11-08 04:17:00,
2013-11-07 23:22:00,41.3,28.5,30.08,West,271,0.0,3.0,60,0.00,,SKC,0.01,VWS V14.01,2013-11-08 04:22:00,
2013-11-07 23:27:00,41.2,28.4,30.08,West,271,0.0,4.0,60,0.00,,SKC,0.01,VWS V14.01,2013-11-08 04:27:00,
2013-11-07 23:32:00,41.1,28.3,30.09,West,271,3.0,4.0,60,0.00,,SKC,0.01,VWS V14.01,2013-11-08 04:32:00,
2013-11-07 23:37:00,41.1,29.5,30.09,West,271,0.0,2.0,63,0.00,,SKC,0.01,VWS V14.01,2013-11-08 04:37:00,
2013-11-07 23:42:00,40.8,28.4,30.09,WNW,285,0.0,6.0,61,0.00,,SKC,0.01,VWS V14.01,2013-11-08 04:42:00,
2013-11-07 23:47:00,40.5,28.5,30.09,WNW,285,2.0,3.0,62,0.00,,SKC,0.01,VWS V14.01,2013-11-08 04:47:00,
2013-11-07 23:52:00,40.2,27.8,30.09,WNW,285,0.0,2.0,61,0.00,,SKC,0.01,VWS V14.01,2013-11-08 04:52:00,
2013-11-07 23:57:00,40.2,28.2,30.09,NW,309,4.0,7.0,62,0.00,,SKC,0.01,VWS V14.01,2013-11-08 04:57:00,